Portada
Imágenes satélite Pronóstico 15 díasClimaPredicción Marítima Ciclones Rayo AeropuertosFAQ Noticias Acerca
El tiempo : Europa África América del Norte América del Sur Asia Australia-Oceanía Otros
Idiomas Contacto

Humberside, Inglaterra

latitud: 53-35N, longitud: 000-21W, altitud: 31 m


METAR: EGNJ 300520Z 22007KT 0600 R20/1200 FG OVC001 14/14 Q1020
TAF: EGNJ 300503Z 3006/3015 23007KT 0700 FG BKN001 BECMG 3006/3009 9999 NSW FEW045

Hora: 06:55 (05:55 UTC)

Observación

El informe se hizo hace 35 minutos, a las 05:20 UTC  
Viento 07 kt del suroeste
Temperatura 14°C
Humedad 100%
Presión 1020 hPa
Visibilidad 0600 m
Cielo cubierto a una altura de 100 ft
niebla

Cambiar las unidades

Pronóstico

El informe se hizo hace 52 minutos, a las 05:03 UTC  
Pronóstico válido del 30 a las 06 UTC al 30 a las 15 UTC
Viento 07 kt del suroeste
Visibilidad 0700 m
Cielo nuboso a una altura de 100 ft
niebla
Evolucionando progresivamente
del 30 a las 06 UTC al 30 a las 09 UTC
Visibilidad 10 km o más
Escasas nubes a una altura de 4500 ft
La información que se ofrece en estas páginas está sujeta a una cláusula de exención de responsabilidad
El tiempo : Europa África América del Norte América del Sur Asia Australia-Oceanía Otros
Imágenes satélite Pronóstico 15 díasClimaPredicción Marítima Ciclones Rayo AeropuertosFAQ Idiomas Contacto Noticias Acerca